Time;durP1;ratioP1;P1;durP2;ratioP2;P2;SDS_P1;SDS_P2;PMS_P1;PMS_P2;Temp;Humidity;BMP_temperature;BMP_pressure;BME280_temperature;BME280_humidity;BME280_pressure;Samples;Min_cycle;Max_cycle;Signal;HPM_P1;HPM_P2
2022/10/28 00:01:27;;;;;;;6.47;3.40;;;13.60;80.00;;;12.33;100.00;96901.91;4806564;29;20212;-65
2022/10/28 00:03:58;;;;;;;11.55;3.72;;;13.60;80.10;;;12.34;100.00;96905.38;4784916;29;20357;-64
2022/10/28 00:06:29;;;;;;;;;;;13.60;80.20;;;12.33;100.00;96895.81;4802619;29;20585;-64
2022/10/28 00:08:57;;;;;;;;;;;13.60;80.20;;;12.28;100.00;96904.28;4798107;29;20328;-64
2022/10/28 00:11:27;;;;;;;7.70;4.10;;;13.50;80.80;;;12.27;100.00;96902.66;4806389;29;20443;-65
2022/10/28 00:13:54;;;;;;;10.00;4.25;;;13.60;80.70;;;12.27;100.00;96898.19;4791071;29;20712;-64
2022/10/28 00:16:24;;;;;;;9.27;4.10;;;13.60;80.60;;;12.27;100.00;96903.47;4782297;29;20366;-65
2022/10/28 00:18:52;;;;;;;11.90;4.40;;;13.60;80.50;;;12.26;100.00;96898.38;4775470;29;20501;-66
2022/10/28 00:21:28;;;;;;;7.30;3.75;;;13.50;80.60;;;12.26;100.00;96898.38;4774188;29;20376;-64
2022/10/28 00:23:54;;;;;;;6.57;3.60;;;13.50;80.60;;;12.24;100.00;96901.19;4789640;29;20885;-64
2022/10/28 00:26:28;;;;;;;7.03;3.95;;;13.50;80.40;;;12.23;100.00;96902.19;4772944;29;20420;-64
2022/10/28 00:29:04;;;;;;;6.43;3.92;;;13.50;80.30;;;12.21;100.00;96898.88;4787322;29;20587;-65
2022/10/28 00:31:30;;;;;;;9.82;4.85;;;13.50;80.40;;;12.23;100.00;96902.19;4799157;29;20409;-64
2022/10/28 00:33:58;;;;;;;8.07;3.97;;;13.50;80.30;;;12.20;100.00;96897.25;4789948;29;20420;-65
2022/10/28 00:36:31;;;;;;;7.22;3.80;;;13.50;80.10;;;12.18;100.00;96903.69;4789407;29;20361;-65
2022/10/28 00:38:57;;;;;;;7.13;3.72;;;13.50;80.10;;;12.17;100.00;96894.97;4792079;29;20350;-66
2022/10/28 00:41:35;;;;;;;6.20;3.50;;;13.50;79.80;;;12.18;100.00;96888.69;4798663;29;20711;-65
2022/10/28 00:44:40;;;;;;;7.30;3.78;;;13.50;79.60;;;12.18;100.00;96893.97;4775055;29;20445;-65
2022/10/28 00:47:42;;;;;;;7.90;3.42;;;13.50;79.70;;;12.18;100.00;96899.25;4816582;29;20376;-64
2022/10/28 00:50:12;;;;;;;11.70;4.00;;;13.50;79.80;;;12.17;100.00;96887.06;4792675;29;20495;-64
2022/10/28 00:52:38;;;;;;;7.97;3.78;;;13.50;79.70;;;12.14;100.00;96891.88;4815360;29;20220;-67
2022/10/28 00:55:04;;;;;;;6.38;3.05;;;13.40;79.70;;;12.11;100.00;96898.34;4816521;29;20599;-66
2022/10/28 00:57:36;;;;;;;5.53;3.22;;;13.40;79.80;;;12.08;100.00;96893.41;4778436;29;20207;-69
2022/10/28 01:00:04;;;;;;;8.30;3.42;;;13.40;79.80;;;12.06;100.00;96894.59;4782505;29;20781;-65
2022/10/28 01:02:31;;;;;;;8.45;3.80;;;13.30;79.60;;;12.00;100.00;96901.41;4787191;29;20330;-65
2022/10/28 01:04:58;;;;;;;8.52;3.72;;;13.30;79.70;;;11.97;100.00;96893.81;4778440;29;20548;-65
2022/10/28 01:07:24;;;;;;;6.40;3.30;;;13.20;79.70;;;11.95;100.00;96898.47;4795386;28;20814;-65
2022/10/28 01:09:50;;;;;;;10.45;3.15;;;13.20;79.60;;;11.94;100.00;96896.81;4770817;29;20701;-66
2022/10/28 01:12:40;;;;;;;7.85;3.38;;;13.20;79.70;;;11.89;100.00;96900.00;4793432;29;20512;-66
2022/10/28 01:15:09;;;;;;;8.32;3.92;;;13.10;79.70;;;11.87;100.00;96901.19;4788571;29;20506;-65
2022/10/28 01:18:11;;;;;;;7.90;3.92;;;13.10;79.70;;;11.85;100.00;96897.91;4808122;29;20389;-65
2022/10/28 01:21:07;;;;;;;11.07;3.58;;;13.10;79.60;;;11.83;100.00;96892.00;4796081;29;20292;-65
2022/10/28 01:23:54;;;;;;;9.00;3.67;;;13.10;79.50;;;11.78;100.00;96881.13;4788918;29;20362;-64
2022/10/28 01:26:43;;;;;;;8.10;3.53;;;13.10;79.60;;;11.76;100.00;96889.19;4805404;29;20527;-64
2022/10/28 01:29:58;;;;;;;7.00;3.13;;;13.10;79.70;;;11.73;100.00;96884.28;4791741;29;20378;-63
2022/10/28 01:32:32;;;;;;;6.68;3.35;;;13.10;79.50;;;11.69;100.00;96887.44;4778050;29;20605;-64
2022/10/28 01:35:19;;;;;;;7.10;3.17;;;12.90;79.40;;;11.64;100.00;96883.53;4796786;29;20353;-64
2022/10/28 01:38:14;;;;;;;7.57;2.78;;;12.90;79.40;;;11.61;100.00;96886.53;4779980;29;20482;-65
2022/10/28 01:41:26;;;;;;;5.40;3.38;;;12.80;79.40;;;11.54;100.00;96884.75;4796647;29;20384;-64
2022/10/28 01:44:18;;;;;;;7.95;3.47;;;12.80;79.40;;;11.47;100.00;96884.63;4791278;29;20498;-64
2022/10/28 01:47:03;;;;;;;4.95;3.05;;;12.70;79.50;;;11.43;100.00;96885.97;4787607;29;20474;-65
2022/10/28 01:50:05;;;;;;;8.48;3.70;;;12.70;79.50;;;11.40;100.00;96886.34;4772526;29;20369;-66
2022/10/28 01:52:34;;;;;;;10.55;3.45;;;12.60;79.60;;;11.35;100.00;96883.41;4787518;29;20499;-65
2022/10/28 01:55:24;;;;;;;6.97;3.40;;;12.60;79.70;;;11.33;100.00;96882.78;4797074;29;20360;-67
2022/10/28 01:57:50;;;;;;;6.63;3.30;;;12.70;79.70;;;11.29;100.00;96887.53;4809804;29;20599;-68
2022/10/28 02:00:17;;;;;;;8.18;3.17;;;12.60;79.80;;;11.28;100.00;96880.63;4790843;29;20443;-65
2022/10/28 02:02:43;;;;;;;7.70;3.35;;;12.60;80.00;;;11.29;100.00;96881.44;4792740;29;20511;-65
2022/10/28 02:05:39;;;;;;;9.48;3.25;;;12.70;80.30;;;11.30;100.00;96883.09;4792817;29;20781;-65
2022/10/28 02:08:17;;;;;;;5.75;3.35;;;12.60;80.60;;;11.28;100.00;96870.09;4812302;28;20426;-65
2022/10/28 02:11:17;;;;;;;7.30;2.97;;;12.60;80.20;;;11.26;100.00;96876.53;4818756;29;20445;-65
2022/10/28 02:14:12;;;;;;;5.63;2.97;;;12.60;79.90;;;11.24;100.00;96883.78;4823921;28;20675;-64
2022/10/28 02:17:23;;;;;;;4.82;3.15;;;12.60;79.70;;;11.20;100.00;96883.31;4812329;29;20575;-65
2022/10/28 02:20:12;;;;;;;7.13;3.17;;;12.50;79.50;;;11.16;100.00;96874.13;4798656;28;20491;-65
2022/10/28 02:22:51;;;;;;;5.57;3.00;;;12.40;79.40;;;11.15;100.00;96884.84;4793348;29;20462;-65
2022/10/28 02:25:28;;;;;;;7.90;3.20;;;12.50;79.70;;;11.12;100.00;96879.94;4817641;29;20494;-64
2022/10/28 02:27:59;;;;;;;7.60;2.85;;;12.40;79.80;;;11.10;100.00;96876.66;4780971;29;20814;-65
2022/10/28 02:30:44;;;;;;;6.50;3.38;;;12.50;79.90;;;11.08;100.00;96884.69;4815122;29;20360;-64
2022/10/28 02:33:20;;;;;;;7.72;3.60;;;12.50;80.30;;;11.08;100.00;96879.44;4789367;29;20886;-64
2022/10/28 02:36:00;;;;;;;16.17;12.18;;;12.40;80.20;;;11.07;100.00;96867.25;4757730;29;20377;-64
2022/10/28 02:38:32;;;;;;;39.08;31.65;;;12.50;80.40;;;11.08;100.00;96865.44;4796974;29;20912;-65
2022/10/28 02:41:01;;;;;;;26.67;17.70;;;12.50;80.80;;;11.09;100.00;96867.09;4774292;29;20793;-67
2022/10/28 02:43:27;;;;;;;20.65;14.05;;;12.50;80.90;;;11.09;100.00;96861.81;4778954;29;20357;-64
2022/10/28 02:45:56;;;;;;;25.58;16.65;;;12.50;81.10;;;11.10;100.00;96860.84;4795224;29;20311;-65
2022/10/28 02:48:34;;;;;;;37.72;29.02;;;12.50;81.20;;;11.12;100.00;96864.13;4785991;29;20330;-67
2022/10/28 02:51:15;;;;;;;15.52;8.65;;;12.60;81.30;;;11.14;100.00;96862.13;4789954;29;20300;-64
2022/10/28 02:54:18;;;;;;;7.90;4.47;;;12.60;81.00;;;11.14;100.00;96862.13;4805552;29;20354;-65
2022/10/28 02:57:16;;;;;;;7.72;3.58;;;12.50;80.70;;;11.11;100.00;96854.59;4792813;29;20489;-66
2022/10/28 02:59:42;;;;;;;6.45;3.55;;;12.50;80.50;;;11.09;100.00;96854.75;4817617;29;20416;-66
2022/10/28 03:02:08;;;;;;;7.13;3.58;;;12.50;80.60;;;11.10;100.00;96860.84;4779257;29;20036;-67
2022/10/28 03:04:34;;;;;;;9.95;4.18;;;12.50;80.70;;;11.09;100.00;96856.56;4845234;29;20299;-65
2022/10/28 03:07:00;;;;;;;7.72;3.58;;;12.50;80.80;;;11.09;100.00;96867.09;4867417;29;20086;-65
2022/10/28 03:09:26;;;;;;;11.82;4.07;;;12.50;80.60;;;11.09;100.00;96854.75;4840772;28;20275;-66
2022/10/28 03:11:52;;;;;;;21.63;15.25;;;12.50;80.60;;;11.11;100.00;96857.22;4806617;29;20575;-65
2022/10/28 03:14:18;;;;;;;17.15;10.43;;;12.50;80.90;;;11.15;100.00;96859.34;4792288;29;20214;-66
2022/10/28 03:16:47;;;;;;;10.50;5.10;;;12.50;81.30;;;11.17;100.00;96857.34;4772574;29;20324;-64
2022/10/28 03:19:13;;;;;;;28.83;19.60;;;12.50;81.10;;;11.19;100.00;96870.34;4794574;29;20345;-64
2022/10/28 03:21:39;;;;;;;27.77;19.33;;;12.60;80.80;;;11.20;100.00;96870.16;4787459;29;20363;-64
2022/10/28 03:24:06;;;;;;;42.45;31.40;;;12.60;80.70;;;11.23;100.00;96866.34;4787755;29;20822;-64
2022/10/28 03:26:32;;;;;;;16.63;10.98;;;12.70;80.80;;;11.22;100.00;96876.06;4778558;29;20457;-66
2022/10/28 03:28:58;;;;;;;19.52;15.18;;;12.60;80.50;;;11.21;100.00;96869.16;4808998;29;20368;-65
2022/10/28 03:31:24;;;;;;;14.18;8.98;;;12.60;80.10;;;11.19;100.00;96859.78;4795347;28;20510;-66
2022/10/28 03:33:54;;;;;;;17.38;10.32;;;12.60;79.70;;;11.16;100.00;96854.88;4781973;29;20453;-65
2022/10/28 03:36:20;;;;;;;11.27;5.53;;;12.50;79.80;;;11.12;100.00;96858.88;4784778;29;20491;-66
2022/10/28 03:38:46;;;;;;;7.20;3.72;;;12.50;79.90;;;11.11;100.00;96854.59;4782762;29;20705;-66
2022/10/28 03:41:12;;;;;;;5.72;3.05;;;12.50;79.90;;;11.07;100.00;96845.38;4771250;29;20764;-67
2022/10/28 03:43:39;;;;;;;8.68;3.85;;;12.50;79.90;;;11.05;100.00;96849.00;4792272;29;20429;-67
2022/10/28 03:46:12;;;;;;;6.03;3.30;;;12.50;79.80;;;11.07;100.00;96853.28;4791275;29;20724;-67
2022/10/28 03:48:38;;;;;;;6.00;2.92;;;12.50;79.70;;;11.04;100.00;96851.81;4800453;29;20535;-64
2022/10/28 03:51:05;;;;;;;5.32;2.63;;;12.40;79.60;;;11.04;100.00;96849.19;4812373;28;20366;-67
2022/10/28 03:53:31;;;;;;;7.47;3.15;;;12.40;79.60;;;11.00;100.00;96846.06;4791305;29;20818;-65
2022/10/28 03:55:59;;;;;;;9.48;3.30;;;12.40;79.50;;;11.00;100.00;96846.06;4771514;29;20365;-65
2022/10/28 03:58:25;;;;;;;7.85;2.75;;;12.40;79.40;;;10.99;100.00;96857.59;4785306;29;20819;-67
2022/10/28 04:00:52;;;;;;;8.60;3.05;;;12.30;79.60;;;10.98;100.00;96857.78;4791266;29;20640;-66
2022/10/28 04:03:18;;;;;;;10.55;3.20;;;12.30;79.70;;;10.96;100.00;96865.84;4768633;29;20347;-66
2022/10/28 04:05:47;;;;;;;7.88;3.42;;;12.30;79.80;;;10.93;100.00;96868.81;4750544;29;20320;-65
2022/10/28 04:08:14;;;;;;;6.47;3.13;;;12.30;79.80;;;10.92;100.00;96863.75;4769910;29;20715;-63
2022/10/28 04:10:40;;;;;;;9.00;3.50;;;12.30;79.70;;;10.88;100.00;96858.00;4781337;29;20767;-64
2022/10/28 04:13:06;;;;;;;6.53;3.20;;;12.30;79.60;;;10.86;100.00;96862.59;4773485;29;20358;-66
2022/10/28 04:15:33;;;;;;;7.45;2.97;;;12.30;79.60;;;10.85;100.00;96863.59;4779509;29;20695;-65
2022/10/28 04:17:59;;;;;;;6.80;2.97;;;12.20;79.60;;;10.82;100.00;96857.84;4778908;29;20757;-65
2022/10/28 04:20:25;;;;;;;9.80;2.70;;;12.30;79.60;;;10.80;100.00;96859.84;4770822;29;20454;-64
2022/10/28 04:22:51;;;;;;;5.57;2.53;;;12.20;79.50;;;10.76;100.00;96859.34;4810187;29;20048;-64
2022/10/28 04:25:17;;;;;;;7.22;3.47;;;12.10;79.40;;;10.73;100.00;96859.69;4898258;29;20115;-64
2022/10/28 04:27:45;;;;;;;18.35;12.50;;;12.10;79.70;;;10.73;100.00;96863.16;4911626;29;20460;-62
2022/10/28 04:30:13;;;;;;;17.30;12.80;;;12.10;79.90;;;10.72;100.00;96863.31;4889822;29;20031;-63
2022/10/28 04:32:41;;;;;;;5.93;4.35;;;12.10;79.80;;;10.70;100.00;96870.56;4897432;29;20035;-64
2022/10/28 04:35:08;;;;;;;7.07;3.00;;;12.10;79.50;;;10.69;100.00;96863.69;4898250;29;20028;-63
2022/10/28 04:37:34;;;;;;;5.97;2.85;;;12.10;79.30;;;10.67;100.00;96860.41;4887910;29;20028;-64
2022/10/28 04:40:01;;;;;;;5.80;2.75;;;12.10;79.40;;;10.67;100.00;96863.84;4877736;29;20142;-63
2022/10/28 04:42:26;;;;;;;10.15;3.00;;;12.10;79.30;;;10.66;100.00;96858.75;4897505;29;20048;-63
2022/10/28 04:44:52;;;;;;;7.50;2.88;;;12.10;79.30;;;10.65;100.00;96863.19;4894266;29;20067;-63
2022/10/28 04:47:18;;;;;;;5.53;2.45;;;12.00;79.30;;;10.64;100.00;96860.75;4926567;29;20044;-63
2022/10/28 04:49:44;;;;;;;5.72;2.20;;;12.00;79.20;;;10.64;100.00;96855.47;4896161;29;20496;-63
2022/10/28 04:52:10;;;;;;;4.40;2.33;;;12.00;79.00;;;10.65;100.00;96862.38;4897755;29;20115;-63
2022/10/28 04:54:35;;;;;;;5.10;2.45;;;12.00;79.00;;;10.63;100.00;96859.06;4897752;29;20474;-63
2022/10/28 04:57:01;;;;;;;6.28;2.60;;;12.00;79.00;;;10.62;100.00;96849.53;4890190;29;20155;-64
2022/10/28 04:59:27;;;;;;;3.78;2.35;;;12.00;78.90;;;10.60;100.00;96860.25;4877171;29;20535;-64
2022/10/28 05:01:53;;;;;;;8.50;3.10;;;12.00;78.90;;;10.58;100.00;96851.69;4911532;29;20364;-63
2022/10/28 05:04:18;;;;;;;4.75;2.67;;;12.00;79.00;;;10.58;100.00;96856.97;4897059;29;20035;-63
2022/10/28 05:06:44;;;;;;;5.78;2.72;;;12.00;78.90;;;10.58;100.00;96856.97;4886021;29;20111;-63
2022/10/28 05:09:10;;;;;;;9.98;2.47;;;12.00;78.80;;;10.56;100.00;96847.59;4904804;29;20075;-63
2022/10/28 05:11:36;;;;;;;7.32;2.60;;;12.00;78.80;;;10.54;100.00;96846.94;4912139;29;20051;-64
2022/10/28 05:14:02;;;;;;;5.68;2.45;;;12.00;78.70;;;10.54;100.00;96844.31;4896838;29;20078;-63
2022/10/28 05:16:27;;;;;;;6.30;2.20;;;12.00;78.30;;;10.53;100.00;96853.22;4897866;29;20044;-63
2022/10/28 05:18:53;;;;;;;6.53;2.28;;;11.90;78.30;;;10.49;100.00;96846.66;4878472;29;20506;-63
2022/10/28 05:21:19;;;;;;;4.53;2.35;;;11.90;78.20;;;10.45;100.00;96850.63;4918013;29;20063;-63
2022/10/28 05:23:46;;;;;;;6.45;2.63;;;11.80;78.10;;;10.41;100.00;96850.13;4911488;28;20048;-63
2022/10/28 05:26:12;;;;;;;4.80;2.55;;;11.80;78.10;;;10.39;100.00;96855.53;4896811;29;20041;-62
2022/10/28 05:28:38;;;;;;;5.32;2.50;;;11.80;78.30;;;10.35;100.00;96856.88;4888904;29;20041;-63
2022/10/28 05:31:03;;;;;;;8.52;2.53;;;11.70;78.50;;;10.33;100.00;96858.84;4892633;29;20460;-63
2022/10/28 05:33:29;;;;;;;5.93;2.35;;;11.70;78.40;;;10.30;100.00;96851.31;4895826;29;20126;-64
2022/10/28 05:35:57;;;;;;;5.45;2.28;;;11.60;78.70;;;10.26;100.00;96852.63;4904193;29;20040;-64
2022/10/28 05:38:22;;;;;;;5.97;2.75;;;11.60;78.90;;;10.25;100.00;96860.69;4895848;29;20163;-63
2022/10/28 05:40:48;;;;;;;6.97;2.05;;;11.60;78.90;;;10.22;100.00;96861.03;4927989;29;20404;-63
2022/10/28 05:43:14;;;;;;;4.88;2.15;;;11.60;78.80;;;10.19;100.00;96856.91;4912069;29;20039;-63
2022/10/28 05:45:40;;;;;;;4.10;2.22;;;11.60;78.90;;;10.15;100.00;96858.19;4923271;29;20159;-64
2022/10/28 05:48:06;;;;;;;6.50;2.38;;;11.50;78.60;;;10.12;100.00;96862.00;4895615;29;20048;-63
2022/10/28 05:50:31;;;;;;;5.55;1.75;;;11.50;78.40;;;10.10;100.00;96863.16;4912037;29;20381;-66
2022/10/28 05:52:57;;;;;;;4.47;2.13;;;11.50;78.50;;;10.09;100.00;96861.50;4881050;29;20044;-68
2022/10/28 05:55:27;;;;;;;3.90;1.90;;;11.50;78.60;;;10.07;100.00;96872.19;4903070;29;20048;-67
2022/10/28 05:57:52;;;;;;;6.30;2.08;;;11.50;78.40;;;10.05;100.00;96870.72;4892108;29;20047;-67
2022/10/28 06:00:20;;;;;;;6.07;2.00;;;11.50;78.50;;;10.04;100.00;96874.34;4893659;29;20052;-67
2022/10/28 06:02:46;;;;;;;3.58;1.95;;;11.50;78.60;;;10.04;100.00;96875.16;4895579;29;20035;-68
2022/10/28 06:05:11;;;;;;;4.97;2.05;;;11.50;78.70;;;10.05;100.00;96882.06;4887624;29;20385;-67
2022/10/28 06:07:38;;;;;;;6.60;2.20;;;11.50;78.70;;;10.03;100.00;96876.13;4876083;29;20051;-68
2022/10/28 06:10:05;;;;;;;5.25;2.55;;;11.50;78.70;;;10.03;100.00;96872.69;4861844;29;20050;-67
2022/10/28 06:12:31;;;;;;;3.78;2.05;;;11.50;78.90;;;10.04;100.00;96880.41;4867879;29;20516;-67
2022/10/28 06:14:57;;;;;;;4.32;1.90;;;11.60;79.00;;;10.08;100.00;96870.38;4903412;29;20050;-67
2022/10/28 06:17:23;;;;;;;5.70;2.00;;;11.60;78.70;;;10.11;100.00;96867.41;4861550;29;20514;-67
2022/10/28 06:19:49;;;;;;;9.52;1.80;;;11.60;78.20;;;10.16;100.00;96865.09;4875697;29;20169;-68
2022/10/28 06:22:15;;;;;;;3.88;2.10;;;11.70;77.70;;;10.23;100.00;96874.00;4883899;29;20077;-68
2022/10/28 06:24:40;;;;;;;6.22;2.10;;;11.80;77.50;;;10.29;100.00;96867.25;4895462;29;20070;-67
2022/10/28 06:27:06;;;;;;;7.25;2.05;;;11.90;77.40;;;10.35;100.00;96869.19;4892343;29;20409;-67
2022/10/28 06:29:33;;;;;;;6.25;2.35;;;12.00;77.00;;;10.40;100.00;96872.97;4890211;29;20106;-67
2022/10/28 06:31:59;;;;;;;4.45;2.08;;;12.10;77.30;;;10.46;100.00;96870.66;4892164;29;20040;-67
2022/10/28 06:34:24;;;;;;;5.82;2.30;;;12.10;76.90;;;10.52;100.00;96867.34;4904478;29;20134;-68
2022/10/28 06:36:50;;;;;;;7.15;2.13;;;12.10;76.70;;;10.58;100.00;96864.03;4895663;29;20032;-67
2022/10/28 06:39:16;;;;;;;4.88;1.88;;;12.20;76.40;;;10.65;100.00;96873.72;4894616;29;20043;-67
2022/10/28 06:41:42;;;;;;;7.65;2.67;;;12.30;76.20;;;10.70;100.00;96881.09;4894093;29;20059;-67
2022/10/28 06:44:07;;;;;;;5.70;2.58;;;12.30;76.00;;;10.76;100.00;96875.16;4887810;29;20043;-67
2022/10/28 06:46:33;;;;;;;8.65;2.55;;;12.40;75.70;;;10.80;100.00;96880.88;4911432;29;20484;-67
2022/10/28 06:49:01;;;;;;;4.68;2.38;;;12.50;75.70;;;10.87;100.00;96887.13;4879306;29;20515;-68
2022/10/28 06:51:27;;;;;;;7.30;2.20;;;12.60;75.60;;;10.93;100.00;96892.53;4894638;29;20083;-67
2022/10/28 06:53:53;;;;;;;4.72;1.70;;;12.70;75.40;;;10.97;100.00;96899.06;4876306;29;20035;-67
2022/10/28 06:56:19;;;;;;;4.78;2.42;;;12.80;75.90;;;11.03;100.00;96898.38;4895100;29;20349;-68
2022/10/28 06:58:52;;;;;;;6.90;2.63;;;12.90;76.00;;;11.10;100.00;96898.53;4925920;29;20043;-67
2022/10/28 07:01:18;;;;;;;6.15;2.10;;;12.90;76.00;;;11.17;100.00;96903.91;4900890;29;20043;-68
2022/10/28 07:03:44;;;;;;;7.32;1.95;;;13.00;75.70;;;11.24;100.00;96899.59;4892067;29;20566;-67
2022/10/28 07:06:10;;;;;;;5.40;2.15;;;13.10;75.90;;;11.31;100.00;96895.25;4885434;29;20563;-67
2022/10/28 07:08:36;;;;;;;4.32;2.00;;;13.10;75.80;;;11.41;100.00;96898.50;4906888;29;20044;-67
2022/10/28 07:11:01;;;;;;;7.32;2.33;;;13.30;74.90;;;11.51;100.00;96896.47;4890374;29;20540;-67
2022/10/28 07:13:27;;;;;;;5.07;2.38;;;13.40;73.70;;;11.64;100.00;96907.25;4893411;29;20415;-67
2022/10/28 07:15:54;;;;;;;8.27;2.17;;;13.60;73.20;;;11.76;100.00;96907.63;4894934;29;20043;-68
2022/10/28 07:18:21;;;;;;;6.30;2.33;;;13.80;72.80;;;11.93;100.00;96911.81;4894076;29;20064;-67
2022/10/28 07:20:46;;;;;;;7.22;2.38;;;14.10;72.80;;;12.11;100.00;96924.69;4891319;29;20119;-67
2022/10/28 07:23:12;;;;;;;8.18;2.15;;;14.40;72.70;;;12.27;100.00;96913.19;4907329;29;20122;-67
2022/10/28 07:25:38;;;;;;;9.40;2.90;;;14.70;72.10;;;12.46;100.00;96912.69;4894263;29;20040;-68
2022/10/28 07:28:04;;;;;;;5.80;2.92;;;15.00;71.00;;;12.66;100.00;96923.50;4905631;29;20142;-67
2022/10/28 07:30:30;;;;;;;8.13;2.67;;;15.40;69.50;;;12.88;100.00;96922.59;4909769;29;20043;-67
2022/10/28 07:32:59;;;;;;;10.98;2.88;;;15.80;68.60;;;13.14;100.00;96926.59;4894712;29;20059;-67
2022/10/28 07:35:26;;;;;;;7.72;2.80;;;16.10;66.90;;;13.40;100.00;96921.66;4891165;29;20063;-67
2022/10/28 07:37:52;;;;;;;5.03;2.30;;;16.50;65.90;;;13.66;100.00;96925.56;4892868;29;20175;-67
2022/10/28 07:40:20;;;;;;;6.35;2.70;;;16.60;65.60;;;13.83;100.00;96921.69;4890601;29;20106;-67
2022/10/28 07:42:45;;;;;;;6.32;2.80;;;16.70;64.40;;;14.05;100.00;96925.97;4889475;29;20105;-67
2022/10/28 07:45:11;;;;;;;6.80;2.80;;;17.00;62.70;;;14.27;100.00;96928.59;4907385;29;20040;-67
2022/10/28 07:47:37;;;;;;;7.28;2.40;;;17.20;62.60;;;14.49;99.20;96922.28;4916992;29;20130;-68
2022/10/28 07:50:03;;;;;;;4.95;2.00;;;17.60;61.90;;;14.71;98.76;96920.38;4913613;29;20151;-67
2022/10/28 07:52:29;;;;;;;8.95;2.78;;;17.90;60.80;;;14.89;95.64;96922.50;4910089;29;20643;-67
2022/10/28 07:54:55;;;;;;;7.20;2.53;;;17.70;60.20;;;14.97;94.74;96917.88;4910347;29;20114;-67
2022/10/28 07:57:21;;;;;;;4.32;2.38;;;17.60;60.70;;;15.06;94.27;96920.34;4895426;29;20040;-67
2022/10/28 07:59:46;;;;;;;10.02;2.60;;;17.60;61.80;;;15.13;93.64;96916.69;4889780;29;20123;-67
2022/10/28 08:02:23;;;;;;;9.55;2.88;;;17.50;61.70;;;15.14;90.45;96910.38;4897459;29;20135;-67
2022/10/28 08:04:48;;;;;;;18.83;10.77;;;17.40;61.90;;;15.21;92.01;96921.03;4886773;29;20104;-68
2022/10/28 08:07:14;;;;;;;11.85;7.97;;;17.50;62.50;;;15.27;91.44;96917.59;4894089;29;20051;-67
2022/10/28 08:09:40;;;;;;;10.70;4.80;;;17.50;61.80;;;15.33;92.32;96916.78;4877249;29;20051;-67
2022/10/28 08:12:07;;;;;;;7.45;3.25;;;17.60;62.60;;;15.42;92.39;96917.44;4893669;29;20040;-67
2022/10/28 08:14:33;;;;;;;12.63;4.10;;;17.70;62.10;;;15.47;91.94;96930.91;4901968;29;20042;-67
2022/10/28 08:16:59;;;;;;;12.48;3.22;;;17.70;62.80;;;15.43;91.82;96922.53;4894330;29;20031;-67
2022/10/28 08:19:24;;;;;;;9.38;2.28;;;17.60;62.50;;;15.50;92.64;96930.50;4893092;29;20063;-67
2022/10/28 08:21:50;;;;;;;6.35;2.42;;;17.70;63.30;;;15.55;91.82;96922.75;4875471;29;21550;-67
2022/10/28 08:24:16;;;;;;;6.68;2.47;;;17.80;63.00;;;15.61;91.82;96924.63;4886422;29;20704;-67
2022/10/28 08:26:42;;;;;;;6.55;2.35;;;17.90;62.30;;;15.69;91.79;96919.19;4894125;29;20389;-67
2022/10/28 08:29:10;;;;;;;8.55;2.63;;;18.00;62.40;;;15.76;91.17;96914.69;4900875;29;20079;-67
2022/10/28 08:31:37;;;;;;;7.28;2.28;;;18.10;62.10;;;15.81;89.18;96911.44;4891018;28;20042;-67
2022/10/28 08:34:02;;;;;;;10.38;3.13;;;18.10;60.60;;;15.86;88.99;96907.16;4883389;29;20028;-67
2022/10/28 08:36:28;;;;;;;6.35;2.42;;;18.10;61.10;;;15.90;88.58;96904.94;4872256;29;20037;-67
2022/10/28 08:38:54;;;;;;;7.45;2.88;;;18.10;61.20;;;15.92;89.24;96894.94;4889364;29;20547;-68
2022/10/28 08:41:42;;;;;;;6.38;2.92;;;18.20;61.30;;;15.99;88.53;96897.56;4906535;29;20080;-68
2022/10/28 08:44:45;;;;;;;6.35;2.70;;;18.40;61.50;;;16.05;88.01;96902.06;4913829;29;20052;-67
2022/10/28 08:47:49;;;;;;;5.05;2.60;;;18.20;61.90;;;16.08;87.25;96901.69;4906294;29;20349;-68
2022/10/28 08:50:17;;;;;;;7.88;2.65;;;18.30;61.60;;;16.05;88.58;96897.56;4888626;29;20425;-68
2022/10/28 08:52:55;;;;;;;6.78;2.25;;;18.20;61.30;;;16.11;87.79;96911.88;4897725;29;20472;-68
2022/10/28 08:55:30;;;;;;;6.03;2.70;;;18.40;61.70;;;16.15;88.85;96926.38;4887147;29;20080;-68
2022/10/28 08:58:10;;;;;;;7.80;2.55;;;18.30;61.80;;;16.17;88.22;96916.38;4877701;29;20432;-68
2022/10/28 09:00:36;;;;;;;9.00;3.05;;;18.30;62.10;;;16.17;88.75;96916.38;4881249;29;20040;-68
2022/10/28 09:03:11;;;;;;;7.88;2.40;;;18.30;62.00;;;16.19;86.83;96919.63;4886600;29;20536;-68
2022/10/28 09:05:38;;;;;;;7.43;2.45;;;18.30;61.50;;;16.22;88.14;96921.88;4912100;29;20575;-68
2022/10/28 09:08:04;;;;;;;8.98;2.38;;;18.40;62.20;;;16.27;88.19;96915.94;4881082;29;20047;-68
2022/10/28 09:10:59;;;;;;;5.93;2.83;;;18.50;61.90;;;16.36;87.38;96909.44;4896709;29;20039;-68
2022/10/28 09:13:35;;;;;;;8.98;2.30;;;18.70;61.40;;;16.46;89.28;96909.81;4870864;29;20096;-67
2022/10/28 09:16:41;;;;;;;5.78;2.72;;;19.10;61.60;;;16.74;87.21;96907.75;4875476;29;20044;-68
2022/10/28 09:19:20;;;;;;;7.60;2.50;;;20.50;58.30;;;17.06;87.01;96899.91;4903051;29;20580;-68
2022/10/28 09:21:50;;;;;;;7.05;2.28;;;21.70;53.30;;;17.30;86.95;96899.19;4909936;29;20139;-69
2022/10/28 09:24:24;;;;;;;5.18;2.15;;;22.00;51.80;;;17.58;84.76;96901.50;4889797;29;20039;-68
2022/10/28 09:27:42;;;;;;;6.35;2.28;;;22.00;52.00;;;17.90;82.54;96890.91;4897977;29;20024;-68
2022/10/28 09:30:41;;;;;;;6.47;2.00;;;22.20;52.00;;;18.17;80.17;96895.00;4882336;29;20024;-65
2022/10/28 09:33:25;;;;;;;6.38;2.20;;;22.80;50.50;;;18.55;83.05;96894.03;4914636;29;20044;-65
2022/10/28 09:35:51;;;;;;;6.28;2.05;;;24.60;47.50;;;19.13;84.15;96886.50;4910218;29;20548;-65
2022/10/28 09:38:39;;;;;;;5.07;1.55;;;26.80;42.00;;;19.73;76.62;96883.09;4877241;29;20036;-66
2022/10/28 09:41:23;;;;;;;7.07;2.15;;;27.80;39.50;;;20.36;73.44;96885.97;4875525;29;20044;-66
2022/10/28 09:44:06;;;;;;;7.43;1.90;;;29.80;35.80;;;21.08;72.06;96889.22;4887872;29;20040;-65
2022/10/28 09:46:32;;;;;;;6.68;1.88;;;31.60;33.20;;;21.71;78.40;96882.16;4909576;29;20036;-66
2022/10/28 09:49:03;;;;;;;9.55;2.15;;;32.90;31.20;;;22.42;70.05;96875.38;4877640;29;20086;-68
2022/10/28 09:52:08;;;;;;;7.05;1.95;;;34.00;29.30;;;23.32;64.00;96870.69;4879483;29;20091;-66
2022/10/28 09:54:38;;;;;;;7.80;1.70;;;35.10;28.20;;;24.08;65.27;96875.00;4910071;29;20128;-68
2022/10/28 09:57:04;;;;;;;6.82;1.63;;;36.00;26.90;;;24.82;69.36;96879.59;4909023;29;20511;-68
2022/10/28 09:59:30;;;;;;;7.65;2.08;;;36.80;26.00;;;25.54;66.87;96881.53;4895362;29;20091;-67
2022/10/28 10:01:56;;;;;;;4.05;1.67;;;37.60;25.20;;;26.21;63.91;96877.09;4895438;29;20042;-66
2022/10/28 10:04:23;;;;;;;6.00;1.92;;;38.40;24.00;;;26.83;61.01;96876.78;4888442;29;20084;-67
2022/10/28 10:06:56;;;;;;;4.72;2.10;;;39.00;23.30;;;27.40;52.46;96866.66;4912220;29;20240;-68
2022/10/28 10:09:27;;;;;;;4.13;1.60;;;39.50;22.80;;;27.90;51.35;96862.88;4894599;29;20095;-66
2022/10/28 10:12:09;;;;;;;11.20;7.65;;;40.00;22.20;;;28.48;48.69;96857.53;4895489;29;20136;-68
2022/10/28 10:14:41;;;;;;;5.47;2.38;;;40.70;21.50;;;29.08;47.36;96866.19;4886575;29;20551;-67
2022/10/28 10:17:39;;;;;;;5.22;1.40;;;41.40;21.10;;;29.79;43.11;96864.47;4871218;29;20035;-66
2022/10/28 10:20:08;;;;;;;4.25;1.77;;;42.10;20.10;;;30.15;46.79;96879.16;4879653;29;20144;-69
2022/10/28 10:22:42;;;;;;;7.60;1.80;;;40.90;20.70;;;30.18;42.21;96861.47;4875500;29;20733;-68
2022/10/28 10:25:17;;;;;;;6.78;1.70;;;38.60;22.90;;;29.83;41.67;96855.44;4911393;29;20039;-66
2022/10/28 10:27:50;;;;;;;6.88;1.40;;;35.60;25.50;;;29.30;41.99;96851.28;4927523;29;20039;-67
2022/10/28 10:30:21;;;;;;;5.97;1.63;;;33.70;28.20;;;28.81;43.24;96849.66;4869621;29;20040;-68
2022/10/28 10:32:47;;;;;;;3.35;1.50;;;32.60;30.10;;;28.34;45.75;96856.63;4908950;29;20039;-68